Time;durP1;ratioP1;P1;durP2;ratioP2;P2;SDS_P1;SDS_P2;PMS_P1;PMS_P2;Temp;Humidity;BMP_temperature;BMP_pressure;BME280_temperature;BME280_humidity;BME280_pressure;Samples;Min_cycle;Max_cycle;Signal;HPM_P1;HPM_P2
2021/06/17 00:00:19;;;;;;;6.00;3.38;;;;;;;23.08;42.74;101124.47;699218;28;37848;-64
2021/06/17 00:00:42;;;;;;;3.88;3.33;;;;;;;23.08;42.91;101128.06;697607;28;75970;-64
2021/06/17 00:01:03;;;;;;;3.53;3.10;;;;;;;23.08;42.94;101125.31;697257;28;70214;-64
2021/06/17 00:01:24;;;;;;;3.13;2.90;;;;;;;23.09;42.97;101128.91;699558;28;23740;-64
2021/06/17 00:01:45;;;;;;;3.30;3.10;;;;;;;23.08;43.04;101129.97;699799;28;23424;-64
2021/06/17 00:02:07;;;;;;;3.53;3.20;;;;;;;23.06;43.23;101130.22;699644;28;22429;-64
2021/06/17 00:02:29;;;;;;;3.70;3.28;;;;;;;23.04;43.22;101133.22;699701;28;23406;-64
2021/06/17 00:02:53;;;;;;;3.38;3.17;;;;;;;23.06;43.10;101132.13;698790;28;44372;-65
2021/06/17 00:03:14;;;;;;;3.20;3.00;;;;;;;23.04;43.04;101126.91;696263;28;114284;-64
2021/06/17 00:03:35;;;;;;;3.38;3.00;;;;;;;23.03;43.12;101123.28;699673;28;22483;-64
2021/06/17 00:03:57;;;;;;;4.47;3.28;;;;;;;23.02;43.12;101129.91;699818;28;23151;-64
2021/06/17 00:04:18;;;;;;;4.07;3.28;;;;;;;23.02;43.25;101131.81;698481;28;46273;-64
2021/06/17 00:04:39;;;;;;;3.47;3.20;;;;;;;23.00;43.34;101132.06;699745;28;21502;-64
2021/06/17 00:05:01;;;;;;;3.85;3.55;;;;;;;23.00;43.39;101131.22;698778;28;23516;-64
2021/06/17 00:05:24;;;;;;;3.38;3.10;;;;;;;22.99;43.21;101133.16;699726;28;21530;-64
2021/06/17 00:05:46;;;;;;;3.50;3.20;;;;;;;22.98;43.51;101130.66;697388;28;93088;-64
2021/06/17 00:06:07;;;;;;;3.47;3.20;;;;;;;22.98;43.39;101131.47;699099;28;23805;-64
2021/06/17 00:06:28;;;;;;;3.60;3.30;;;;;;;22.97;43.54;101135.31;698203;28;19382;-64
2021/06/17 00:06:51;;;;;;;3.50;3.20;;;;;;;22.95;43.63;101131.97;699762;28;922;-64
2021/06/17 00:07:12;;;;;;;3.85;3.35;;;;;;;22.95;43.35;101126.47;700265;28;949;-64
2021/06/17 00:07:35;;;;;;;3.83;3.20;;;;;;;22.95;43.50;101128.41;700239;28;918;-64
2021/06/17 00:07:56;;;;;;;3.70;3.40;;;;;;;22.94;43.72;101135.81;698833;28;46647;-64
2021/06/17 00:08:18;;;;;;;3.35;3.15;;;;;;;22.95;43.55;101134.72;699548;28;17130;-64
2021/06/17 00:08:43;;;;;;;3.40;3.10;;;;;;;22.92;43.70;101132.47;698653;28;60769;-64
2021/06/17 00:09:05;;;;;;;3.42;3.20;;;;;;;22.94;43.64;101138.56;700134;28;936;-64
2021/06/17 00:09:26;;;;;;;3.75;3.40;;;;;;;22.94;43.71;101134.97;698381;28;46280;-64
2021/06/17 00:09:47;;;;;;;3.67;3.38;;;;;;;22.93;43.78;101131.41;699497;28;22376;-64
2021/06/17 00:10:13;;;;;;;3.72;3.42;;;;;;;22.94;43.63;101132.22;699731;28;21392;-64
2021/06/17 00:10:35;;;;;;;3.30;3.10;;;;;;;22.92;43.78;101129.72;696221;28;129588;-64
2021/06/17 00:10:57;;;;;;;3.55;3.25;;;;;;;22.92;43.82;101137.16;698424;28;45292;-64
2021/06/17 00:11:18;;;;;;;3.97;3.47;;;;;;;22.93;43.75;101134.16;699748;28;24291;-64
2021/06/17 00:11:40;;;;;;;4.72;3.35;;;;;;;22.93;43.63;101134.16;698798;28;22407;-65
2021/06/17 00:12:01;;;;;;;3.50;3.25;;;;;;;22.93;43.54;101131.41;701288;28;42491;-64
2021/06/17 00:12:23;;;;;;;3.35;3.05;;;;;;;22.93;43.67;101138.81;701464;28;45345;-64
2021/06/17 00:12:44;;;;;;;3.55;3.25;;;;;;;22.93;43.64;101128.66;700257;28;46405;-64
2021/06/17 00:13:08;;;;;;;4.95;3.58;;;;;;;22.93;43.66;101131.41;700639;28;15500;-64
2021/06/17 00:13:33;;;;;;;4.13;3.72;;;;;;;22.93;43.81;101134.16;700216;28;92248;-64
2021/06/17 00:13:54;;;;;;;4.40;3.45;;;;;;;22.92;43.80;101132.47;697747;28;93173;-64
2021/06/17 00:14:15;;;;;;;3.67;3.38;;;;;;;22.92;43.65;101131.66;699247;28;22387;-63
2021/06/17 00:14:37;;;;;;;3.88;3.45;;;;;;;22.93;44.05;101136.06;699625;28;22094;-64
2021/06/17 00:14:58;;;;;;;3.90;3.53;;;;;;;22.91;43.73;101133.56;698302;28;43741;-64
2021/06/17 00:15:21;;;;;;;3.90;3.55;;;;;;;22.91;43.83;101141.00;700114;28;12369;-64
2021/06/17 00:15:44;;;;;;;3.80;3.50;;;;;;;22.91;43.94;101141.00;697472;28;92182;-64
2021/06/17 00:16:06;;;;;;;3.47;3.28;;;;;;;22.91;43.94;101130.78;698895;28;46369;-64
2021/06/17 00:16:27;;;;;;;3.70;3.50;;;;;;;22.90;43.97;101140.16;698831;28;38044;-64
2021/06/17 00:16:48;;;;;;;3.75;3.42;;;;;;;22.90;44.29;101139.31;699460;28;21188;-65
2021/06/17 00:17:10;;;;;;;4.57;3.50;;;;;;;22.86;44.17;101134.31;697994;28;46421;-64
2021/06/17 00:17:32;;;;;;;3.83;3.53;;;;;;;22.86;44.44;101138.97;698941;28;46436;-64
2021/06/17 00:17:53;;;;;;;3.80;3.40;;;;;;;22.85;44.30;101137.31;698787;28;45293;-65
2021/06/17 00:18:15;;;;;;;3.72;3.53;;;;;;;22.85;44.27;101137.31;699137;28;23390;-64
2021/06/17 00:18:39;;;;;;;3.50;3.20;;;;;;;22.84;44.38;101132.91;699013;28;44388;-64
2021/06/17 00:19:01;;;;;;;3.83;3.50;;;;;;;22.82;44.36;101138.66;698770;28;69477;-64
2021/06/17 00:19:23;;;;;;;3.85;3.55;;;;;;;22.83;44.33;101131.22;698382;28;67112;-65
2021/06/17 00:19:44;;;;;;;3.38;3.08;;;;;;;22.83;44.43;101134.78;699409;28;46305;-64
2021/06/17 00:20:07;;;;;;;3.53;3.22;;;;;;;22.83;44.52;101134.78;700912;28;22284;-63
2021/06/17 00:20:28;;;;;;;3.35;3.08;;;;;;;22.81;44.27;101130.66;696039;28;63575;-64
2021/06/17 00:20:50;;;;;;;3.58;3.28;;;;;;;22.83;44.24;101139.47;699890;28;16333;-65
2021/06/17 00:21:11;;;;;;;3.70;3.30;;;;;;;22.83;44.38;101131.22;698562;28;45550;-64
2021/06/17 00:21:33;;;;;;;3.90;3.50;;;;;;;22.82;44.33;101129.53;699148;28;22285;-64
2021/06/17 00:21:54;;;;;;;3.67;3.35;;;;;;;22.80;44.59;101140.81;698703;28;22365;-64
2021/06/17 00:22:16;;;;;;;3.33;3.13;;;;;;;22.80;44.30;101135.28;698786;28;46458;-64
2021/06/17 00:22:37;;;;;;;3.95;3.40;;;;;;;22.79;44.61;101144.66;699896;28;22396;-64
2021/06/17 00:22:59;;;;;;;4.45;3.40;;;;;;;22.80;44.55;101139.97;698556;28;22386;-64
2021/06/17 00:23:21;;;;;;;3.78;3.08;;;;;;;22.77;44.46;101134.97;697174;28;69562;-64
2021/06/17 00:23:42;;;;;;;3.50;3.22;;;;;;;22.80;44.67;101134.47;695482;28;44358;-64
2021/06/17 00:24:05;;;;;;;3.60;3.30;;;;;;;22.79;44.47;101141.06;697245;28;885;-64
2021/06/17 00:24:26;;;;;;;3.78;3.47;;;;;;;22.78;44.55;101134.72;695726;28;36820;-63
2021/06/17 00:24:55;;;;;;;4.18;3.58;;;;;;;22.78;44.76;101137.47;696891;28;60533;-64
2021/06/17 00:25:17;;;;;;;3.83;3.50;;;;;;;22.78;44.63;101131.97;699562;28;23406;-65
2021/06/17 00:25:39;;;;;;;3.58;3.38;;;;;;;22.78;44.74;101140.22;698652;28;46349;-64
2021/06/17 00:26:00;;;;;;;3.88;3.47;;;;;;;22.79;44.71;101138.28;698571;28;46395;-64
2021/06/17 00:26:21;;;;;;;3.88;3.50;;;;;;;22.78;44.95;101139.41;699650;28;23731;-64
2021/06/17 00:26:42;;;;;;;3.83;3.53;;;;;;;22.79;44.58;101132.78;699803;28;22376;-64
2021/06/17 00:27:05;;;;;;;3.70;3.50;;;;;;;22.79;44.66;101136.41;700388;28;873;-64
2021/06/17 00:27:27;;;;;;;3.92;3.63;;;;;;;22.78;44.88;101129.22;696954;28;68346;-64
2021/06/17 00:27:49;;;;;;;3.88;3.47;;;;;;;22.78;44.77;101137.47;697217;28;46988;-64
2021/06/17 00:28:10;;;;;;;4.07;3.67;;;;;;;22.78;44.67;101131.13;697310;28;46254;-64
2021/06/17 00:28:33;;;;;;;4.15;3.60;;;;;;;22.78;44.77;101131.97;699354;28;22370;-66
2021/06/17 00:28:54;;;;;;;3.63;3.33;;;;;;;22.77;44.73;101129.47;697244;28;44460;-64
2021/06/17 00:29:15;;;;;;;3.67;3.38;;;;;;;22.77;44.75;101135.78;698038;28;23381;-64
2021/06/17 00:29:37;;;;;;;3.80;3.50;;;;;;;22.77;44.76;101132.22;697798;28;44699;-64
2021/06/17 00:29:58;;;;;;;3.72;3.47;;;;;;;22.77;44.72;101135.78;698594;28;23537;-64
2021/06/17 00:30:21;;;;;;;3.42;3.22;;;;;;;22.77;44.34;101134.97;699470;28;24323;-64
2021/06/17 00:30:42;;;;;;;4.28;3.70;;;;;;;22.76;44.75;101134.16;697751;28;69507;-64
2021/06/17 00:31:03;;;;;;;3.70;3.40;;;;;;;22.76;44.88;101138.78;698495;28;46310;-64
2021/06/17 00:31:24;;;;;;;4.13;3.40;;;;;;;22.74;44.72;101133.53;699210;28;22155;-64
2021/06/17 00:31:47;;;;;;;4.50;3.58;;;;;;;22.74;44.88;101138.22;699572;28;21238;-64
2021/06/17 00:32:08;;;;;;;4.22;3.60;;;;;;;22.72;45.00;101134.88;698603;28;46368;-64
2021/06/17 00:32:30;;;;;;;3.58;3.28;;;;;;;22.72;44.85;101134.88;700320;28;1127;-64
2021/06/17 00:32:52;;;;;;;3.58;3.28;;;;;;;22.70;44.87;101129.63;699612;28;22385;-65
2021/06/17 00:33:13;;;;;;;3.83;3.53;;;;;;;22.72;44.99;101134.88;698477;28;43986;-64
2021/06/17 00:33:34;;;;;;;3.72;3.42;;;;;;;22.71;45.01;101139.56;699836;28;19301;-64
2021/06/17 00:33:55;;;;;;;4.35;3.67;;;;;;;22.72;45.08;101137.63;699429;28;22297;-64
2021/06/17 00:34:17;;;;;;;4.00;3.70;;;;;;;22.71;45.06;101134.06;699373;28;23513;-64
2021/06/17 00:34:38;;;;;;;4.63;3.63;;;;;;;22.70;44.87;101134.31;697929;28;65617;-64
2021/06/17 00:34:59;;;;;;;3.60;3.30;;;;;;;22.69;45.12;101133.47;699117;28;23466;-64
2021/06/17 00:35:20;;;;;;;3.67;3.38;;;;;;;22.68;45.10;101135.38;699530;28;21511;-64
2021/06/17 00:35:42;;;;;;;3.88;3.55;;;;;;;22.67;45.12;101138.38;699625;28;22460;-64
2021/06/17 00:36:04;;;;;;;3.95;3.63;;;;;;;22.68;45.12;101140.06;698605;28;44409;-64
2021/06/17 00:36:25;;;;;;;5.75;3.53;;;;;;;22.67;45.15;101141.97;699461;28;23534;-64
2021/06/17 00:36:46;;;;;;;4.50;3.33;;;;;;;22.67;45.14;101133.69;699652;28;22470;-64
2021/06/17 00:37:07;;;;;;;3.78;3.47;;;;;;;22.65;45.23;101133.13;699572;28;23497;-64
2021/06/17 00:37:29;;;;;;;3.70;3.50;;;;;;;22.66;45.15;101136.72;699447;28;22155;-64
2021/06/17 00:37:51;;;;;;;4.05;3.65;;;;;;;22.66;45.13;101140.31;697930;28;44372;-64
2021/06/17 00:38:12;;;;;;;3.95;3.58;;;;;;;22.65;45.19;101135.88;698940;28;23423;-64
2021/06/17 00:38:34;;;;;;;5.27;3.50;;;;;;;22.65;45.27;101135.88;699396;28;4101;-64
2021/06/17 00:38:55;;;;;;;4.83;3.73;;;;;;;22.65;45.07;101137.81;697778;28;69440;-64
2021/06/17 00:39:16;;;;;;;3.60;3.30;;;;;;;22.64;45.31;101134.19;698622;28;42193;-64
2021/06/17 00:39:37;;;;;;;4.00;3.60;;;;;;;22.64;45.42;101138.88;698645;28;44435;-64
2021/06/17 00:39:59;;;;;;;4.40;3.65;;;;;;;22.63;45.29;101134.44;698284;28;22459;-64
2021/06/17 00:40:22;;;;;;;5.32;3.97;;;;;;;22.62;45.35;101138.31;699418;28;23533;-64
2021/06/17 00:40:44;;;;;;;4.07;3.78;;;;;;;22.60;45.33;101135.81;697092;28;92280;-64
2021/06/17 00:41:05;;;;;;;4.10;3.80;;;;;;;22.60;45.50;101132.19;697724;28;67464;-64
2021/06/17 00:41:26;;;;;;;4.45;3.80;;;;;;;22.59;45.53;101133.28;699440;28;21529;-64
2021/06/17 00:41:48;;;;;;;3.95;3.65;;;;;;;22.58;45.60;101131.59;699458;28;22391;-64
2021/06/17 00:42:09;;;;;;;4.03;3.72;;;;;;;22.57;45.40;101136.28;698216;28;45224;-64
2021/06/17 00:42:32;;;;;;;3.80;3.60;;;;;;;22.57;45.59;101136.28;699618;28;23561;-64
2021/06/17 00:42:54;;;;;;;3.75;3.50;;;;;;;22.56;45.73;101134.63;697691;28;70181;-64
2021/06/17 00:43:16;;;;;;;4.78;3.72;;;;;;;22.56;45.64;101134.63;698240;28;22414;-64
2021/06/17 00:43:37;;;;;;;4.13;3.50;;;;;;;22.55;45.69;101137.59;698099;28;44358;-64
2021/06/17 00:43:58;;;;;;;4.03;3.58;;;;;;;22.54;45.69;101128.53;698713;28;44516;-65
2021/06/17 00:44:19;;;;;;;3.70;3.40;;;;;;;22.54;45.85;101136.78;698773;28;14027;-63
2021/06/17 00:44:41;;;;;;;3.70;3.40;;;;;;;22.54;45.74;101133.19;699373;28;21519;-64
2021/06/17 00:45:04;;;;;;;4.05;3.60;;;;;;;22.53;45.88;101135.09;699070;28;23453;-64
2021/06/17 00:45:27;;;;;;;4.30;3.53;;;;;;;22.53;45.95;101137.03;697965;28;67478;-64
2021/06/17 00:45:48;;;;;;;4.32;4.03;;;;;;;22.52;45.75;101135.34;698058;28;67508;-64
2021/06/17 00:46:09;;;;;;;4.22;3.92;;;;;;;22.50;45.85;101130.91;698134;28;17881;-64
2021/06/17 00:46:31;;;;;;;4.00;3.70;;;;;;;22.50;45.95;101133.66;698417;28;21206;-64
2021/06/17 00:46:53;;;;;;;4.35;3.95;;;;;;;22.50;46.08;101135.59;698713;28;43638;-64
2021/06/17 00:47:14;;;;;;;4.15;3.75;;;;;;;22.49;45.96;101132.03;698994;28;37449;-64
2021/06/17 00:47:35;;;;;;;4.20;3.60;;;;;;;22.50;45.98;101133.66;699337;28;16481;-64
2021/06/17 00:48:03;;;;;;;3.80;3.60;;;;;;;22.48;46.05;101130.34;697984;28;61750;-64
2021/06/17 00:48:24;;;;;;;4.22;3.80;;;;;;;22.48;46.04;101135.03;697643;28;69481;-64
2021/06/17 00:48:45;;;;;;;4.22;3.90;;;;;;;22.48;46.26;101129.53;699859;28;15833;-64
2021/06/17 00:49:07;;;;;;;3.70;3.40;;;;;;;22.48;46.10;101135.84;699958;28;8170;-64
2021/06/17 00:49:29;;;;;;;4.03;3.63;;;;;;;22.47;46.17;101127.84;699139;28;22320;-64
2021/06/17 00:49:55;;;;;;;3.80;3.50;;;;;;;22.47;46.19;101131.41;697957;28;60667;-64
2021/06/17 00:50:18;;;;;;;4.03;3.70;;;;;;;22.46;46.17;101128.91;699819;28;1056;-64
2021/06/17 00:50:41;;;;;;;4.20;3.80;;;;;;;22.46;46.28;101132.50;697917;28;39480;-63
2021/06/17 00:51:04;;;;;;;3.92;3.63;;;;;;;22.47;46.34;101128.66;696720;28;93307;-64
2021/06/17 00:51:25;;;;;;;3.75;3.45;;;;;;;22.47;46.36;101133.34;698173;28;46436;-64
2021/06/17 00:51:46;;;;;;;3.80;3.50;;;;;;;22.47;46.27;101139.66;699508;28;23252;-64
2021/06/17 00:52:07;;;;;;;4.80;3.88;;;;;;;22.46;46.03;101127.00;699946;28;9176;-64
2021/06/17 00:52:28;;;;;;;3.92;3.63;;;;;;;22.46;46.23;101135.28;699275;28;23554;-64
2021/06/17 00:52:50;;;;;;;3.90;3.60;;;;;;;22.46;46.19;101127.00;699276;28;35173;-64
2021/06/17 00:53:13;;;;;;;4.35;3.95;;;;;;;22.45;46.43;101135.50;698592;28;40111;-64
2021/06/17 00:53:34;;;;;;;4.10;3.80;;;;;;;22.44;46.38;101131.09;698852;28;42246;-64
2021/06/17 00:53:55;;;;;;;4.10;3.80;;;;;;;22.44;46.27;101136.59;699065;28;19253;-64
2021/06/17 00:54:31;;;;;;;4.10;3.70;;;;;;;22.44;46.24;101129.16;699560;28;23463;-64
2021/06/17 00:54:56;;;;;;;4.15;3.75;;;;;;;22.40;46.43;101124.38;693103;28;180790;-64
2021/06/17 00:55:17;;;;;;;4.60;4.20;;;;;;;22.44;46.88;101129.16;695107;28;113504;-64
2021/06/17 00:55:39;;;;;;;4.35;4.00;;;;;;;22.45;46.40;101138.25;699533;28;23209;-64
2021/06/17 00:56:02;;;;;;;4.20;3.80;;;;;;;22.43;46.62;101135.75;698452;28;45257;-64
2021/06/17 00:56:23;;;;;;;4.37;4.00;;;;;;;22.43;46.61;101124.75;697833;28;69424;-64
2021/06/17 00:56:44;;;;;;;6.00;4.20;;;;;;;22.44;46.60;101131.09;698461;28;47133;-64
2021/06/17 00:57:07;;;;;;;4.10;3.70;;;;;;;22.43;46.74;101130.25;699378;28;20880;-64
2021/06/17 00:57:28;;;;;;;4.43;3.83;;;;;;;22.41;46.65;101129.66;697798;28;66990;-64
2021/06/17 00:57:52;;;;;;;4.88;4.00;;;;;;;22.42;46.60;101133.25;700132;28;6916;-64
2021/06/17 00:58:13;;;;;;;4.70;4.00;;;;;;;22.41;46.70;101131.56;697114;28;84633;-64
2021/06/17 00:58:34;;;;;;;3.92;3.63;;;;;;;22.41;46.54;101132.41;699041;28;22519;-64
2021/06/17 00:58:57;;;;;;;3.97;3.65;;;;;;;22.41;46.68;101135.16;699599;28;21809;-64
2021/06/17 00:59:18;;;;;;;5.15;4.07;;;;;;;22.42;46.70;101131.31;697322;28;67139;-65
2021/06/17 00:59:40;;;;;;;6.85;4.28;;;;;;;22.41;46.66;101126.06;699556;28;16573;-64
2021/06/17 01:00:01;;;;;;;4.82;4.10;;;;;;;22.41;46.74;101123.31;698548;28;34741;-64
2021/06/17 01:00:22;;;;;;;4.43;3.80;;;;;;;22.41;46.50;101128.81;700421;28;953;-64
2021/06/17 01:00:44;;;;;;;5.25;3.90;;;;;;;22.40;46.65;101125.25;700210;28;6230;-64
2021/06/17 01:01:06;;;;;;;4.60;3.83;;;;;;;22.42;46.62;101125.00;699298;28;21369;-64
2021/06/17 01:01:27;;;;;;;6.90;4.07;;;;;;;22.41;46.85;101131.56;698491;28;41789;-64
2021/06/17 01:01:48;;;;;;;4.65;4.18;;;;;;;22.40;46.81;101135.41;699675;28;22099;-64
2021/06/17 01:02:09;;;;;;;4.18;3.85;;;;;;;22.38;46.90;101127.41;699497;28;21063;-64
2021/06/17 01:02:30;;;;;;;5.07;4.00;;;;;;;22.38;47.09;101141.19;699137;28;21324;-64
2021/06/17 01:02:52;;;;;;;5.75;4.03;;;;;;;22.37;47.08;101128.50;699519;28;22373;-64
2021/06/17 01:03:13;;;;;;;5.35;4.20;;;;;;;22.40;47.06;101130.75;697710;28;46348;-63
2021/06/17 01:03:34;;;;;;;4.82;4.40;;;;;;;22.41;46.96;101126.91;698314;28;45023;-64
2021/06/17 01:03:56;;;;;;;4.95;4.47;;;;;;;22.41;47.08;101123.31;699575;28;23411;-64
2021/06/17 01:04:17;;;;;;;4.65;4.25;;;;;;;22.41;47.16;101126.91;699411;28;21339;-63
2021/06/17 01:04:39;;;;;;;4.43;4.03;;;;;;;22.41;46.89;101126.91;699456;28;22429;-64
2021/06/17 01:05:00;;;;;;;4.20;3.80;;;;;;;22.44;47.04;101125.56;697084;28;67767;-64
2021/06/17 01:05:24;;;;;;;4.10;3.70;;;;;;;22.43;47.15;101123.91;699353;28;23472;-64
2021/06/17 01:05:46;;;;;;;4.30;4.00;;;;;;;22.43;46.82;101119.25;699195;28;15038;-64
2021/06/17 01:06:13;;;;;;;6.20;4.20;;;;;;;22.43;46.90;101123.91;698309;28;61985;-64
2021/06/17 01:06:34;;;;;;;4.78;4.13;;;;;;;22.44;47.02;101125.56;699426;28;21326;-64
2021/06/17 01:06:56;;;;;;;4.43;4.03;;;;;;;22.43;47.07;101116.50;699405;28;19743;-64
2021/06/17 01:07:24;;;;;;;4.30;3.90;;;;;;;22.44;47.14;101123.66;700141;28;873;-64
2021/06/17 01:07:54;;;;;;;7.10;4.28;;;;;;;22.43;47.16;101119.25;695932;28;139152;-64
2021/06/17 01:08:21;;;;;;;5.90;4.07;;;;;;;22.43;47.12;101110.13;693454;28;160904;-64
2021/06/17 01:08:50;;;;;;;7.03;4.20;;;;;;;22.43;47.14;101121.16;695455;28;138720;-64
2021/06/17 01:09:15;;;;;;;4.50;4.15;;;;;;;22.44;47.02;101122.81;694923;28;137607;-64
2021/06/17 01:09:46;;;;;;;4.85;4.20;;;;;;;22.43;47.04;101126.66;695973;28;102987;-64
2021/06/17 01:10:10;;;;;;;4.28;3.97;;;;;;;22.40;47.07;101116.13;695271;28;137701;-64
2021/06/17 01:10:39;;;;;;;4.70;4.18;;;;;;;22.42;46.98;101119.50;696910;28;92205;-64
2021/06/17 01:11:06;;;;;;;4.65;4.03;;;;;;;22.42;47.08;101119.50;695249;28;136250;-63
2021/06/17 01:11:32;;;;;;;4.68;4.25;;;;;;;22.42;47.06;101122.25;694832;28;137215;-64
2021/06/17 01:12:00;;;;;;;4.50;4.10;;;;;;;22.41;47.01;101126.91;695587;28;138066;-64
2021/06/17 01:12:29;;;;;;;5.53;4.30;;;;;;;22.40;47.08;101119.75;694652;28;160919;-64
2021/06/17 01:12:58;;;;;;;4.45;4.10;;;;;;;22.38;47.13;101121.91;695621;28;137952;-64
2021/06/17 01:13:23;;;;;;;4.85;4.43;;;;;;;22.34;46.90;101119.91;695532;28;137944;-64
2021/06/17 01:13:50;;;;;;;4.60;4.20;;;;;;;22.36;47.29;101126.81;698150;28;60419;-64
2021/06/17 01:14:19;;;;;;;4.95;4.20;;;;;;;22.35;47.04;101121.56;696665;28;92385;-64
2021/06/17 01:14:42;;;;;;;4.50;4.15;;;;;;;22.34;47.12;101123.47;695379;28;122314;-64
2021/06/17 01:15:06;;;;;;;4.93;4.10;;;;;;;22.33;47.32;101124.53;696116;28;112255;-64
2021/06/17 01:15:27;;;;;;;6.32;4.32;;;;;;;22.32;47.34;101125.66;695600;28;92232;-64
2021/06/17 01:15:53;;;;;;;5.90;4.18;;;;;;;22.31;47.40;101126.72;698821;28;22413;-64
2021/06/17 01:16:18;;;;;;;5.03;4.63;;;;;;;22.30;47.50;101120.41;695290;28;138490;-64
2021/06/17 01:16:43;;;;;;;4.43;4.03;;;;;;;22.30;47.54;101112.13;695166;28;136183;-64
2021/06/17 01:17:07;;;;;;;4.53;4.13;;;;;;;22.30;47.52;101111.28;696015;28;116018;-64
2021/06/17 01:17:29;;;;;;;4.55;4.15;;;;;;;22.30;47.54;101120.41;696693;28;91709;-64
2021/06/17 01:17:56;;;;;;;4.93;4.22;;;;;;;22.29;47.52;101109.59;697263;28;43423;-64
2021/06/17 01:18:18;;;;;;;4.45;4.05;;;;;;;22.29;47.50;101117.84;694990;28;136370;-64
2021/06/17 01:18:44;;;;;;;4.65;4.25;;;;;;;22.27;47.75;101112.59;697408;28;46264;-64
2021/06/17 01:19:10;;;;;;;4.65;4.10;;;;;;;22.27;47.58;101115.34;696211;28;101006;-64
2021/06/17 01:19:40;;;;;;;4.72;4.10;;;;;;;22.28;47.42;101118.94;694419;28;138719;-65
2021/06/17 01:20:07;;;;;;;4.60;4.20;;;;;;;22.27;47.62;101115.34;693991;28;137823;-64
2021/06/17 01:20:30;;;;;;;4.18;3.88;;;;;;;22.28;47.74;101116.19;696336;28;138153;-63
2021/06/17 01:20:53;;;;;;;4.47;4.10;;;;;;;22.27;47.90;101106.25;697395;28;90194;-64
2021/06/17 01:21:25;;;;;;;5.80;4.60;;;;;;;22.27;47.95;101112.59;698241;28;90054;-64
2021/06/17 01:21:58;;;;;;;4.88;4.38;;;;;;;22.27;47.82;101112.59;696117;28;148846;-64
2021/06/17 01:22:29;;;;;;;4.78;4.25;;;;;;;22.26;47.99;101113.66;696360;28;128143;-64
2021/06/17 01:22:53;;;;;;;5.07;4.60;;;;;;;22.28;48.07;101116.19;695062;28;112747;-64
2021/06/17 01:23:34;;;;;;;5.70;4.80;;;;;;;22.28;47.76;101113.44;698206;28;51015;-63
2021/06/17 01:24:26;;;;;;;4.93;4.53;;;;;;;22.26;48.02;101115.59;695246;28;137740;-64
2021/06/17 01:24:57;;;;;;;5.05;4.60;;;;;;;22.26;47.77;101108.16;693808;28;137930;-64
2021/06/17 01:25:31;;;;;;;4.85;4.35;;;;;;;22.26;48.22;101123.84;694621;28;138399;-63
2021/06/17 01:26:02;;;;;;;4.50;4.10;;;;;;;22.24;48.13;101121.34;694171;28;160573;-64
2021/06/17 01:26:31;;;;;;;7.30;4.80;;;;;;;22.25;48.29;101111.16;694638;28;160712;-64
2021/06/17 01:27:08;;;;;;;4.95;4.50;;;;;;;22.25;48.11;101111.16;695370;28;138190;-64
2021/06/17 01:27:39;;;;;;;4.80;4.40;;;;;;;22.25;48.01;101109.22;695292;28;137713;-64
2021/06/17 01:28:05;;;;;;;6.90;4.88;;;;;;;22.25;47.87;101114.75;693986;28;136151;-64
2021/06/17 01:28:27;;;;;;;4.85;4.35;;;;;;;22.25;48.05;101109.22;695605;28;137851;-64
2021/06/17 01:28:50;;;;;;;5.05;4.53;;;;;;;22.25;47.66;101105.66;700130;28;923;-64
2021/06/17 01:29:16;;;;;;;4.95;4.50;;;;;;;22.25;47.98;101105.66;696293;28;90450;-64
2021/06/17 01:29:40;;;;;;;5.20;4.70;;;;;;;22.24;47.96;101118.59;696210;28;106366;-64
2021/06/17 01:30:04;;;;;;;5.10;4.70;;;;;;;22.25;48.13;101119.41;698800;28;83741;-64
2021/06/17 01:30:27;;;;;;;4.93;4.53;;;;;;;22.23;48.17;101122.41;698211;28;92114;-64
2021/06/17 01:30:54;;;;;;;5.18;4.75;;;;;;;22.23;48.42;101116.09;698978;28;68103;-64
2021/06/17 01:31:19;;;;;;;6.97;4.85;;;;;;;22.23;48.22;101107.84;699244;28;60816;-64
2021/06/17 01:31:44;;;;;;;4.80;4.30;;;;;;;22.23;48.11;101107.84;700259;28;61871;-63
2021/06/17 01:32:06;;;;;;;4.80;4.40;;;;;;;22.22;48.13;101115.22;699393;28;21333;-64
2021/06/17 01:32:28;;;;;;;5.20;4.70;;;;;;;22.22;48.38;101109.72;698699;28;41038;-64
2021/06/17 01:32:53;;;;;;;5.43;4.93;;;;;;;22.21;48.50;101105.31;697780;28;69442;-63
2021/06/17 01:33:14;;;;;;;5.63;4.63;;;;;;;22.22;48.40;101106.16;696173;28;89367;-64
2021/06/17 01:33:38;;;;;;;5.28;4.80;;;;;;;22.23;48.19;101116.09;698592;28;44510;-64
2021/06/17 01:34:00;;;;;;;5.57;4.97;;;;;;;22.23;48.56;101116.91;697910;28;67508;-64
2021/06/17 01:34:23;;;;;;;4.97;4.57;;;;;;;22.24;48.47;101098.47;698134;28;54629;-64
2021/06/17 01:34:45;;;;;;;4.88;4.57;;;;;;;22.25;48.48;101113.91;697674;28;70000;-64
2021/06/17 01:35:09;;;;;;;4.90;4.50;;;;;;;22.24;48.43;101110.34;699083;28;24094;-64
2021/06/17 01:35:34;;;;;;;4.75;4.35;;;;;;;22.24;48.44;101112.22;697115;28;90787;-63
2021/06/17 01:36:00;;;;;;;5.40;4.90;;;;;;;22.24;48.22;101113.09;696114;28;115137;-63
2021/06/17 01:36:24;;;;;;;5.40;4.90;;;;;;;22.24;48.59;101109.47;697573;28;71384;-63
2021/06/17 01:36:49;;;;;;;5.05;4.55;;;;;;;22.24;48.24;101118.59;697229;28;92779;-63
2021/06/17 01:37:12;;;;;;;5.32;4.82;;;;;;;22.25;48.32;101113.91;696070;28;115297;-63
2021/06/17 01:37:33;;;;;;;5.70;4.80;;;;;;;22.25;48.52;101109.22;697677;28;69452;-63
2021/06/17 01:37:57;;;;;;;5.55;4.93;;;;;;;22.25;48.51;101113.91;698556;28;46248;-63
2021/06/17 01:38:22;;;;;;;5.40;4.90;;;;;;;22.24;48.47;101117.75;696611;28;90239;-63
2021/06/17 01:38:56;;;;;;;5.17;4.77;;;;;;;22.23;48.67;101116.91;696834;28;95222;-63
2021/06/17 01:39:18;;;;;;;5.18;4.78;;;;;;;22.23;48.55;101107.84;698446;28;38915;-65
2021/06/17 01:39:41;;;;;;;5.63;5.10;;;;;;;22.24;48.62;101113.09;700360;28;913;-64
2021/06/17 01:40:04;;;;;;;5.68;5.18;;;;;;;22.24;48.36;101114.97;699305;28;12965;-63
2021/06/17 01:40:26;;;;;;;6.30;4.88;;;;;;;22.22;48.58;101109.72;696860;28;91967;-63
2021/06/17 01:40:48;;;;;;;6.88;4.93;;;;;;;22.22;48.79;101111.66;699485;28;13045;-64
2021/06/17 01:41:09;;;;;;;5.40;4.72;;;;;;;22.23;48.66;101118.84;697478;28;69434;-64
2021/06/17 01:41:35;;;;;;;5.25;4.80;;;;;;;22.24;48.67;101103.97;698828;28;22399;-63
2021/06/17 01:42:00;;;;;;;5.85;5.28;;;;;;;22.26;48.77;101110.09;695431;28;137969;-63
2021/06/17 01:42:22;;;;;;;5.88;4.93;;;;;;;22.25;48.62;101112.00;697115;28;92300;-63
2021/06/17 01:42:44;;;;;;;5.55;5.10;;;;;;;22.26;48.55;101113.66;696426;28;70352;-63
2021/06/17 01:43:08;;;;;;;5.15;4.68;;;;;;;22.26;48.64;101110.91;698091;28;22503;-63
2021/06/17 01:43:29;;;;;;;5.35;4.90;;;;;;;22.25;48.78;101108.41;699221;28;25726;-64
2021/06/17 01:43:51;;;;;;;5.90;5.40;;;;;;;22.25;48.74;101113.91;698807;28;23410;-63
2021/06/17 01:44:13;;;;;;;6.78;5.30;;;;;;;22.25;48.85;101105.66;698436;28;44405;-63
2021/06/17 01:44:34;;;;;;;5.82;5.00;;;;;;;22.25;48.76;101109.22;698602;28;44455;-64
2021/06/17 01:44:58;;;;;;;5.50;5.00;;;;;;;22.25;48.79;101113.91;697647;28;47383;-63
2021/06/17 01:45:21;;;;;;;5.15;4.65;;;;;;;22.24;48.75;101102.09;696937;28;90789;-63
2021/06/17 01:45:42;;;;;;;5.47;5.07;;;;;;;22.25;48.82;101111.16;697834;28;69389;-64
2021/06/17 01:46:04;;;;;;;5.70;5.10;;;;;;;22.24;48.60;101110.34;699233;28;21300;-63
2021/06/17 01:46:26;;;;;;;6.35;5.00;;;;;;;22.24;48.68;101102.09;698137;28;45358;-63
2021/06/17 01:46:49;;;;;;;5.40;4.90;;;;;;;22.24;48.98;101098.47;697870;28;65647;-63
2021/06/17 01:47:12;;;;;;;5.68;5.07;;;;;;;22.22;48.74;101101.47;698426;28;47503;-63
2021/06/17 01:47:35;;;;;;;5.18;4.70;;;;;;;22.25;48.70;101108.41;697902;28;67492;-63
2021/06/17 01:47:57;;;;;;;5.50;5.00;;;;;;;22.24;48.90;101110.34;697646;28;70306;-64
2021/06/17 01:48:19;;;;;;;5.43;4.90;;;;;;;22.25;48.76;101100.16;699022;28;1585;-63
2021/06/17 01:48:41;;;;;;;5.32;4.82;;;;;;;22.25;48.95;101111.16;697367;28;44531;-63
2021/06/17 01:49:02;;;;;;;5.38;4.88;;;;;;;22.24;48.94;101110.34;697924;28;46331;-64
2021/06/17 01:49:23;;;;;;;5.30;4.80;;;;;;;22.24;48.96;101113.09;698829;28;23491;-64